Time;durP1;ratioP1;P1;durP2;ratioP2;P2;SDS_P1;SDS_P2;PMS_P1;PMS_P2;Temp;Humidity;BMP_temperature;BMP_pressure;BME280_temperature;BME280_humidity;BME280_pressure;Samples;Min_cycle;Max_cycle;Signal;HPM_P1;HPM_P2
2022/10/17 00:00:44;;;;;;;7.90;6.10;;;;;;;-142.65;100.00;50170.78;5113330;28;20200;-67
2022/10/17 00:03:10;;;;;;;6.60;6.40;;;;;;;;;;5113740;28;20181;-67
2022/10/17 00:05:42;;;;;;;6.40;6.20;;;;;;;-142.65;100.00;50168.78;5113478;28;20204;-67
2022/10/17 00:08:10;;;;;;;6.30;6.10;;;;;;;-142.65;100.00;50164.81;5113446;28;20185;-67
2022/10/17 00:10:37;;;;;;;5.97;5.87;;;;;;;-142.65;100.00;50168.78;5113304;28;20208;-67
2022/10/17 00:13:04;;;;;;;7.00;6.73;;;;;;;-142.65;100.00;50164.81;5113267;28;20185;-67
2022/10/17 00:15:31;;;;;;;5.50;5.30;;;;;;;-142.65;100.00;50170.78;5113339;28;20189;-67
2022/10/17 00:17:59;;;;;;;6.00;5.90;;;;;;;-142.65;100.00;50172.78;5113236;28;20189;-67
2022/10/17 00:20:26;;;;;;;5.40;5.30;;;;;;;-142.65;100.00;50168.78;5113484;28;20213;-67
2022/10/17 00:22:52;;;;;;;5.27;5.17;;;;;;;-142.65;100.00;50162.81;5113191;28;20208;-67
2022/10/17 00:25:19;;;;;;;5.43;5.23;;;;;;;-142.65;100.00;50162.81;5113482;28;20188;-67
2022/10/17 00:27:45;;;;;;;4.60;4.40;;;;;;;-142.65;100.00;50172.78;5113456;28;20189;-67
2022/10/17 00:30:15;;;;;;;5.77;5.53;;;;;;;-142.65;100.00;50168.78;5113136;28;20262;-67
2022/10/17 00:32:42;;;;;;;6.00;5.80;;;;;;;-142.65;100.00;50170.78;5113174;28;20186;-67
2022/10/17 00:35:08;;;;;;;5.60;5.50;;;;;;;-142.65;100.00;50117.00;5113168;28;20526;-67
2022/10/17 00:37:35;;;;;;;5.73;5.63;;;;;;;-142.65;100.00;50162.81;5113148;28;20188;-67
2022/10/17 00:40:02;;;;;;;5.43;5.30;;;;;;;-142.65;100.00;50162.81;5113055;28;20212;-67
2022/10/17 00:42:28;;;;;;;6.33;6.03;;;;;;;-142.65;100.00;50168.78;5094831;28;20220;-67
2022/10/17 00:45:20;;;;;;;6.50;6.20;;;;;;;-142.65;100.00;50172.78;5113327;28;20193;-67
2022/10/17 00:48:03;;;;;;;5.67;5.40;;;;;;;-142.65;100.00;50164.81;5097715;28;20173;-67
2022/10/17 00:50:31;;;;;;;5.93;5.57;;;;;;;-142.65;100.00;50170.78;5116909;28;20223;-67
2022/10/17 00:53:01;;;;;;;5.60;5.50;;;;;;;-142.65;100.00;50162.81;5098333;28;20193;-67
2022/10/17 00:55:31;;;;;;;7.17;6.93;;;;;;;-142.65;100.00;50170.78;5098394;28;20200;-67
2022/10/17 00:57:59;;;;;;;5.73;5.60;;;;;;;;;;5116828;28;20178;-67
2022/10/17 01:00:26;;;;;;;6.37;6.17;;;;;;;-142.65;100.00;50162.81;5116397;28;20212;-67
2022/10/17 01:02:52;;;;;;;6.90;6.50;;;;;;;-142.65;100.00;50162.81;5098061;28;20700;-67
2022/10/17 01:05:20;;;;;;;6.30;5.90;;;;;;;;;;5098101;28;20284;-67
2022/10/17 01:07:48;;;;;;;5.73;5.40;;;;;;;;;;5116317;28;20659;-67
2022/10/17 01:10:14;;;;;;;6.23;6.13;;;;;;;-142.65;100.00;50170.78;5097968;28;20687;-67
2022/10/17 01:12:53;;;;;;;6.67;5.67;;;;;;;;;;5116510;28;20586;-67
2022/10/17 01:15:33;;;;;;;5.57;5.47;;;;;;;;;;5116072;28;20192;-67
2022/10/17 01:18:12;;;;;;;5.43;5.10;;;;;;;;;;5116726;28;20282;-67
2022/10/17 01:20:57;;;;;;;5.07;4.87;;;;;;;;;;5097745;28;20215;-67
2022/10/17 01:23:38;;;;;;;5.13;4.80;;;;;;;-142.65;100.00;50162.81;5116333;28;20174;-67
2022/10/17 01:26:22;;;;;;;4.87;4.73;;;;;;;-142.65;100.00;50162.81;5097727;28;20639;-67
2022/10/17 01:29:07;;;;;;;5.83;5.30;;;;;;;-142.65;100.00;50168.78;5098566;28;20581;-67
2022/10/17 01:31:45;;;;;;;5.70;5.30;;;;;;;;;;5116367;28;20671;-67
2022/10/17 01:34:21;;;;;;;6.07;5.83;;;;;;;-142.65;100.00;50164.81;5097586;28;20243;-67
2022/10/17 01:36:47;;;;;;;6.57;6.33;;;;;;;;;;5097532;28;20184;-67
2022/10/17 01:39:20;;;;;;;6.80;6.50;;;;;;;-142.65;100.00;50162.81;5097473;28;20228;-67
2022/10/17 01:41:55;;;;;;;6.40;5.97;;;;;;;-142.65;100.00;50168.78;5097543;28;20221;-67
2022/10/17 01:44:37;;;;;;;6.27;5.73;;;;;;;;;;5115650;28;20255;-67
2022/10/17 01:47:08;;;;;;;6.50;6.30;;;;;;;;;;5097827;28;20177;-67
2022/10/17 01:49:36;;;;;;;6.00;5.87;;;;;;;;;;5097280;28;20553;-67
2022/10/17 01:52:05;;;;;;;5.33;5.13;;;;;;;;;;5097108;28;20599;-67
2022/10/17 01:54:40;;;;;;;5.67;5.57;;;;;;;-142.65;100.00;50170.78;5097125;28;20685;-67
2022/10/17 01:57:12;;;;;;;5.77;5.67;;;;;;;-142.65;100.00;50162.81;5096794;28;20234;-67
2022/10/17 01:59:42;;;;;;;5.83;5.73;;;;;;;-142.65;100.00;50162.81;5115543;28;20165;-68
2022/10/17 02:02:12;;;;;;;7.37;7.17;;;;;;;-142.65;100.00;50176.75;5096949;28;20209;-67
2022/10/17 02:04:40;;;;;;;7.30;7.03;;;;;;;;;;5116064;28;20585;-67
2022/10/17 02:07:12;;;;;;;6.50;6.20;;;;;;;-142.65;100.00;50168.78;5096860;28;20194;-67
2022/10/17 02:09:39;;;;;;;6.03;5.93;;;;;;;-142.65;100.00;50164.81;5116072;28;20531;-67
2022/10/17 02:12:24;;;;;;;7.17;6.80;;;;;;;-142.65;100.00;50164.81;5096831;28;20287;-67
2022/10/17 02:15:28;;;;;;;7.23;6.80;;;;;;;-142.65;100.00;50164.81;5096671;28;20197;-67
2022/10/17 02:18:00;;;;;;;6.77;6.57;;;;;;;;;;5096670;28;20606;-67
2022/10/17 02:20:52;;;;;;;6.67;6.47;;;;;;;-142.65;100.00;50172.78;5115150;28;20704;-67
2022/10/17 02:23:36;;;;;;;6.70;6.60;;;;;;;-142.65;100.00;50168.78;5115358;28;20201;-67
2022/10/17 02:26:24;;;;;;;6.10;6.00;;;;;;;-142.65;100.00;50164.81;5096602;28;20226;-67
2022/10/17 02:29:06;;;;;;;6.40;6.30;;;;;;;-142.65;100.00;50164.81;5097412;28;20177;-67
2022/10/17 02:31:39;;;;;;;6.10;5.90;;;;;;;-142.65;100.00;50164.81;5114959;28;20218;-67
2022/10/17 02:34:13;;;;;;;6.90;6.50;;;;;;;-142.65;100.00;50168.78;5115007;28;20256;-67
2022/10/17 02:36:45;;;;;;;6.73;6.60;;;;;;;-142.65;100.00;50170.78;5096645;28;20196;-67
2022/10/17 02:39:12;;;;;;;7.37;7.10;;;;;;;;;;5096335;28;20189;-67
2022/10/17 02:41:39;;;;;;;6.60;6.30;;;;;;;;;;5096157;28;20213;-67
2022/10/17 02:44:06;;;;;;;7.33;6.67;;;;;;;;;;5096203;28;20200;-67
2022/10/17 02:46:33;;;;;;;5.97;5.87;;;;;;;;;;5114390;28;20208;-67
2022/10/17 02:49:14;;;;;;;6.90;6.80;;;;;;;-142.65;100.00;50164.81;5114655;28;20188;-67
2022/10/17 02:51:46;;;;;;;7.27;7.07;;;;;;;;;;5096062;28;20216;-67
2022/10/17 02:54:21;;;;;;;7.03;6.67;;;;;;;-142.65;100.00;50162.81;5114529;28;20185;-67
2022/10/17 02:56:54;;;;;;;6.83;6.43;;;;;;;-142.65;100.00;50168.78;5096068;28;20276;-67
2022/10/17 02:59:21;;;;;;;7.53;7.23;;;;;;;-142.65;100.00;50162.81;5114249;28;20174;-67
2022/10/17 03:01:50;;;;;;;6.17;5.97;;;;;;;-142.65;100.00;50164.81;5095829;28;20213;-67
2022/10/17 03:04:17;;;;;;;7.70;7.10;;;;;;;;;;5114379;28;20272;-67
2022/10/17 03:06:45;;;;;;;7.30;7.07;;;;;;;-142.65;100.00;50172.78;5096092;28;20200;-67
2022/10/17 03:09:12;;;;;;;6.83;6.53;;;;;;;-142.65;100.00;50168.78;5095117;28;20189;-67
2022/10/17 03:11:39;;;;;;;7.70;7.30;;;;;;;-142.65;100.00;50168.78;5095730;28;20205;-67
2022/10/17 03:14:07;;;;;;;8.83;8.37;;;;;;;-142.65;100.00;50160.81;5095682;28;20193;-67
2022/10/17 03:16:33;;;;;;;7.80;7.47;;;;;;;-142.65;100.00;50164.81;5095733;28;20238;-67
2022/10/17 03:18:59;;;;;;;7.97;7.50;;;;;;;;;;5095663;28;20220;-67
2022/10/17 03:21:26;;;;;;;8.87;8.07;;;;;;;;;;5095568;28;20269;-67
2022/10/17 03:23:52;;;;;;;7.37;6.27;;;;;;;;;;5096507;28;20276;-67
2022/10/17 03:26:21;;;;;;;7.60;7.20;;;;;;;-142.65;100.00;50162.81;5095575;28;20193;-67
2022/10/17 03:28:47;;;;;;;6.97;6.77;;;;;;;;;;5095848;28;20654;-67
2022/10/17 03:31:19;;;;;;;7.43;6.97;;;;;;;-142.65;100.00;50168.78;5095471;28;20578;-67
2022/10/17 03:33:46;;;;;;;8.33;7.50;;;;;;;;;;5095741;28;20197;-67
2022/10/17 03:36:14;;;;;;;10.43;7.00;;;;;;;;;;5113711;28;20190;-67
2022/10/17 03:38:41;;;;;;;7.30;7.00;;;;;;;-142.65;100.00;50164.81;5095529;28;20333;-67
2022/10/17 03:41:08;;;;;;;7.80;7.20;;;;;;;;;;5095299;28;20265;-67
2022/10/17 03:43:36;;;;;;;8.63;8.23;;;;;;;-142.65;100.00;50164.81;5095630;28;20262;-67
2022/10/17 03:46:03;;;;;;;7.57;7.23;;;;;;;-142.65;100.00;50162.81;5095396;28;20193;-67
2022/10/17 03:48:31;;;;;;;8.03;7.73;;;;;;;-142.65;100.00;50170.78;5095353;28;20193;-67
2022/10/17 03:51:07;;;;;;;7.67;7.27;;;;;;;-142.65;100.00;50170.78;5095280;28;20303;-67
2022/10/17 03:53:38;;;;;;;8.67;8.17;;;;;;;;;;5095601;28;20181;-67
2022/10/17 03:56:14;;;;;;;7.37;7.17;;;;;;;;;;5095312;28;20201;-67
2022/10/17 03:58:40;;;;;;;9.27;8.03;;;;;;;;;;5095284;28;20181;-67
2022/10/17 04:01:10;;;;;;;8.37;7.37;;;;;;;-142.65;100.00;50164.81;5095553;28;20242;-67
2022/10/17 04:03:38;;;;;;;7.47;7.07;;;;;;;-142.65;100.00;50162.81;5095102;28;20213;-67
2022/10/17 04:06:04;;;;;;;8.17;7.87;;;;;;;-142.65;100.00;50172.78;5095238;28;20223;-67
2022/10/17 04:08:33;;;;;;;8.10;7.70;;;;;;;;;;5095170;28;20216;-67
2022/10/17 04:11:07;;;;;;;8.03;7.47;;;;;;;-142.65;100.00;50170.78;5095284;28;20625;-68
2022/10/17 04:13:34;;;;;;;7.80;7.50;;;;;;;-142.65;100.00;50164.81;5095117;28;20193;-67
2022/10/17 04:16:05;;;;;;;7.67;7.37;;;;;;;;;;5113392;28;20542;-67
2022/10/17 04:18:32;;;;;;;7.90;7.70;;;;;;;-142.65;100.00;50170.78;5095369;28;20239;-67
2022/10/17 04:21:06;;;;;;;7.47;7.17;;;;;;;-142.65;100.00;50172.78;5114899;28;20213;-67
2022/10/17 04:23:33;;;;;;;7.17;6.87;;;;;;;-142.65;100.00;50162.81;5117408;28;20193;-67
2022/10/17 04:26:09;;;;;;;7.17;7.07;;;;;;;;;;5099205;28;20275;-67
2022/10/17 04:28:35;;;;;;;7.60;7.40;;;;;;;;;;5117149;28;20193;-67
2022/10/17 04:31:05;;;;;;;7.00;6.80;;;;;;;-142.65;100.00;50162.81;5098656;28;20220;-68
2022/10/17 04:33:37;;;;;;;11.37;6.93;;;;;;;-142.65;100.00;50162.81;5099853;28;20188;-67
2022/10/17 04:36:08;;;;;;;9.73;8.83;;;;;;;-142.65;100.00;50168.78;5117076;28;20223;-67
2022/10/17 04:38:35;;;;;;;6.77;6.63;;;;;;;;;;5099232;28;20188;-67
2022/10/17 04:41:03;;;;;;;7.57;6.90;;;;;;;;;;5098505;28;20300;-67
2022/10/17 04:43:30;;;;;;;8.00;7.70;;;;;;;;;;5098478;28;20213;-67
2022/10/17 04:46:01;;;;;;;8.13;7.53;;;;;;;-142.65;100.00;50168.78;5098521;28;20536;-67
2022/10/17 04:48:29;;;;;;;8.87;8.07;;;;;;;-142.65;100.00;50164.81;5098531;28;20195;-67
2022/10/17 04:51:09;;;;;;;9.17;8.77;;;;;;;-142.65;100.00;50164.81;5098273;28;20209;-67
2022/10/17 04:53:42;;;;;;;10.80;9.63;;;;;;;-142.65;100.00;50172.78;5099247;28;20530;-67
2022/10/17 04:56:10;;;;;;;11.13;10.20;;;;;;;;;;5098233;28;20651;-67
2022/10/17 04:58:38;;;;;;;13.43;11.73;;;;;;;-142.65;100.00;50172.78;5098217;28;20193;-67
2022/10/17 05:01:06;;;;;;;16.67;11.30;;;;;;;-142.65;100.00;50162.81;5098086;28;20216;-68
2022/10/17 05:03:34;;;;;;;12.20;11.10;;;;;;;-142.65;100.00;50162.81;5098084;28;20305;-68
2022/10/17 05:06:08;;;;;;;12.53;11.23;;;;;;;;;;5098119;28;20284;-68
2022/10/17 05:08:36;;;;;;;16.27;9.93;;;;;;;-142.65;100.00;50162.81;5098412;28;20189;-67
2022/10/17 05:11:04;;;;;;;13.17;9.07;;;;;;;-142.65;100.00;50164.81;5097921;28;20749;-67
2022/10/17 05:13:31;;;;;;;11.97;10.20;;;;;;;-142.65;100.00;50170.78;5097933;28;20266;-67
2022/10/17 05:16:00;;;;;;;9.00;8.47;;;;;;;-142.65;100.00;50170.78;5098050;28;20621;-67
2022/10/17 05:18:27;;;;;;;11.17;8.50;;;;;;;-142.65;100.00;50168.78;5116704;28;20272;-67
2022/10/17 05:20:54;;;;;;;9.40;8.47;;;;;;;-142.65;100.00;50168.78;5097828;28;20209;-68
2022/10/17 05:23:20;;;;;;;10.20;8.27;;;;;;;-142.65;100.00;50164.81;5097767;28;20583;-67
2022/10/17 05:25:53;;;;;;;7.63;7.27;;;;;;;-142.65;100.00;50162.81;5098424;28;20193;-67
2022/10/17 05:28:22;;;;;;;21.07;7.30;;;;;;;-142.65;100.00;50162.81;5097672;28;20727;-67
2022/10/17 05:30:50;;;;;;;11.33;7.10;;;;;;;-142.65;100.00;50117.00;5098125;28;20213;-68
2022/10/17 05:33:17;;;;;;;7.87;7.03;;;;;;;-142.65;100.00;50164.81;5096898;28;20185;-68
2022/10/17 05:35:44;;;;;;;6.60;6.20;;;;;;;-142.65;100.00;50162.81;5097535;28;20192;-67
2022/10/17 05:38:10;;;;;;;7.90;7.40;;;;;;;;;;5115747;28;20275;-67
2022/10/17 05:40:39;;;;;;;6.87;6.67;;;;;;;;;;5097282;28;20296;-68
2022/10/17 05:43:05;;;;;;;7.43;7.10;;;;;;;-142.65;100.00;50178.75;5098188;28;20212;-67
2022/10/17 05:45:31;;;;;;;6.47;6.27;;;;;;;;;;5115541;28;20251;-67
2022/10/17 05:47:58;;;;;;;7.60;6.83;;;;;;;-142.65;100.00;50168.78;5097499;28;20197;-67
2022/10/17 05:50:25;;;;;;;6.07;5.97;;;;;;;-142.65;100.00;50160.81;5097132;28;20224;-68
2022/10/17 05:53:17;;;;;;;6.57;6.37;;;;;;;-142.65;100.00;50162.81;5112219;28;20239;-68
2022/10/17 05:55:54;;;;;;;7.40;6.90;;;;;;;-142.65;100.00;50101.06;5097420;28;20199;-68
2022/10/17 05:58:21;;;;;;;7.20;6.70;;;;;;;-142.65;100.00;50164.81;5115671;28;20207;-68
2022/10/17 06:01:12;;;;;;;6.63;6.13;;;;;;;;;;5097177;28;20621;-68
2022/10/17 06:03:39;;;;;;;6.97;6.70;;;;;;;-142.65;99.43;50164.81;5096922;28;20694;-68
2022/10/17 06:06:08;;;;;;;5.70;5.57;;;;;;;-142.65;99.05;50101.06;5096923;28;20280;-67
2022/10/17 06:08:37;;;;;;;6.90;6.70;;;;;;;-142.65;98.60;50162.81;5097421;28;20206;-67
2022/10/17 06:11:05;;;;;;;13.73;6.03;;;;;;;-142.65;98.16;50162.81;5096882;28;20315;-68
2022/10/17 06:13:36;;;;;;;7.67;6.77;;;;;;;-142.65;96.92;50160.81;5115404;28;20188;-68
2022/10/17 06:16:08;;;;;;;6.00;5.77;;;;;;;-142.65;95.57;50162.81;5097795;28;20583;-68
2022/10/17 06:18:35;;;;;;;7.50;7.03;;;;;;;-142.65;95.35;50162.81;5115255;28;20552;-68
2022/10/17 06:21:08;;;;;;;6.43;5.90;;;;;;;-142.65;94.55;50164.81;5096555;28;20220;-67
2022/10/17 06:23:38;;;;;;;19.43;6.00;;;;;;;-142.65;94.77;50162.81;5096759;28;20292;-67
2022/10/17 06:26:13;;;;;;;7.50;6.03;;;;;;;-142.65;93.26;50162.81;5096530;28;20238;-67
2022/10/17 06:28:40;;;;;;;6.30;6.20;;;;;;;-142.65;92.85;50162.81;5096549;28;20193;-67
2022/10/17 06:31:09;;;;;;;6.33;5.97;;;;;;;-142.65;92.60;50162.81;5096813;28;20219;-68
2022/10/17 06:33:36;;;;;;;10.43;6.63;;;;;;;-142.65;92.40;50162.81;5096392;28;20182;-68
2022/10/17 06:36:05;;;;;;;10.67;6.20;;;;;;;-142.65;92.51;50162.81;5096311;28;20196;-68
2022/10/17 06:38:33;;;;;;;6.57;6.13;;;;;;;-142.65;91.60;50164.81;5096767;28;20195;-67
2022/10/17 06:41:20;;;;;;;7.30;6.00;;;;;;;-142.65;91.73;50160.81;5096733;28;20217;-68
2022/10/17 06:43:50;;;;;;;11.30;5.80;;;;;;;-142.65;91.63;50162.81;5095899;28;20296;-68
2022/10/17 06:46:43;;;;;;;11.10;5.83;;;;;;;-142.65;91.97;50101.06;5114731;28;20173;-68
2022/10/17 06:49:13;;;;;;;18.50;6.00;;;;;;;-142.65;91.78;50162.81;5096459;28;20196;-68
2022/10/17 06:51:58;;;;;;;21.43;6.20;;;;;;;;;;5114564;28;20228;-68
2022/10/17 06:54:45;;;;;;;8.50;6.20;;;;;;;-142.65;91.27;50164.81;5113691;28;20196;-68
2022/10/17 06:57:40;;;;;;;7.73;5.50;;;;;;;-142.65;91.22;50162.81;5096014;28;20192;-67
2022/10/17 07:00:29;;;;;;;11.30;5.87;;;;;;;;;;5112544;28;20223;-67
2022/10/17 07:02:56;;;;;;;6.17;5.87;;;;;;;-142.65;90.59;50162.81;5095816;28;20239;-67
2022/10/17 07:05:22;;;;;;;9.47;5.83;;;;;;;-142.65;90.36;50162.81;5095882;28;20193;-67
2022/10/17 07:07:48;;;;;;;6.33;5.83;;;;;;;-142.65;90.56;50101.06;5095895;28;20716;-67
2022/10/17 07:10:17;;;;;;;6.53;6.07;;;;;;;;;;5095743;28;20250;-68
2022/10/17 07:12:44;;;;;;;8.13;5.57;;;;;;;-142.65;90.37;50162.81;5113937;28;20191;-68
2022/10/17 07:15:11;;;;;;;5.63;5.50;;;;;;;;;;5095487;28;20192;-68
2022/10/17 07:17:37;;;;;;;6.03;5.73;;;;;;;-142.65;90.37;50162.81;5113936;28;20181;-68
2022/10/17 07:20:04;;;;;;;11.03;8.00;;;;;;;;;;5095516;28;20213;-68
2022/10/17 07:22:33;;;;;;;6.10;5.90;;;;;;;-142.65;89.71;50164.81;5095566;28;20197;-68
2022/10/17 07:25:00;;;;;;;7.87;6.37;;;;;;;-142.65;89.83;50162.81;5096483;28;20189;-68
2022/10/17 07:27:35;;;;;;;16.23;5.93;;;;;;;-142.65;89.91;50162.81;5095750;28;20181;-68
2022/10/17 07:30:01;;;;;;;21.27;6.30;;;;;;;-142.65;89.78;50170.78;5113730;28;20197;-68
2022/10/17 07:32:34;;;;;;;14.37;6.37;;;;;;;;;;5095389;28;20235;-68
2022/10/17 07:35:00;;;;;;;16.10;6.70;;;;;;;-142.65;89.23;50162.81;5095551;28;20655;-68
2022/10/17 07:37:28;;;;;;;6.80;5.83;;;;;;;-142.65;89.36;50162.81;5113698;28;20187;-68
2022/10/17 07:39:55;;;;;;;10.13;6.57;;;;;;;;;;5095336;28;20196;-68
2022/10/17 07:42:22;;;;;;;6.23;6.00;;;;;;;-142.65;89.44;50160.81;5095449;28;20201;-68
2022/10/17 07:44:49;;;;;;;6.30;6.20;;;;;;;-142.65;89.16;50164.81;5113843;28;20200;-68
2022/10/17 07:47:16;;;;;;;6.83;6.20;;;;;;;-142.65;88.41;50162.81;5096187;28;20599;-68
2022/10/17 07:49:44;;;;;;;17.33;7.50;;;;;;;-142.65;87.50;50162.81;5095250;28;20336;-68
2022/10/17 07:52:15;;;;;;;8.07;5.60;;;;;;;-142.65;87.01;50164.81;5113521;28;20715;-68
2022/10/17 07:54:41;;;;;;;5.33;5.03;;;;;;;-142.65;86.61;50164.81;5114156;28;20524;-67
2022/10/17 07:57:08;;;;;;;15.83;5.73;;;;;;;-142.65;86.34;50164.81;5117333;28;20192;-67
2022/10/17 07:59:37;;;;;;;6.07;5.87;;;;;;;-142.65;85.65;50162.81;5118427;28;20185;-67
2022/10/17 08:02:03;;;;;;;7.27;5.90;;;;;;;;;;5117557;28;20213;-68
2022/10/17 08:04:29;;;;;;;4.97;4.60;;;;;;;;;;5117860;28;20204;-68
2022/10/17 08:06:56;;;;;;;5.50;5.10;;;;;;;-142.65;83.98;50162.81;5117489;28;20608;-68
2022/10/17 08:09:43;;;;;;;7.03;5.27;;;;;;;-142.65;83.52;50162.81;5117716;28;20177;-68
2022/10/17 08:12:09;;;;;;;8.37;6.83;;;;;;;-142.65;83.87;50160.81;5117408;28;20193;-68
2022/10/17 08:14:35;;;;;;;9.77;5.03;;;;;;;-142.65;82.94;50162.81;5117293;28;20677;-68
2022/10/17 08:17:02;;;;;;;6.10;4.73;;;;;;;;;;5117334;28;20188;-67
2022/10/17 08:19:28;;;;;;;8.00;5.63;;;;;;;-142.65;82.13;50101.06;5117793;28;20201;-68
2022/10/17 08:21:54;;;;;;;5.40;5.27;;;;;;;;;;5117428;28;20205;-68
2022/10/17 08:24:21;;;;;;;11.47;5.23;;;;;;;-142.65;81.54;50162.81;5117392;28;20674;-68
2022/10/17 08:26:47;;;;;;;5.67;5.27;;;;;;;-142.65;80.56;50164.81;5117113;28;20186;-68
2022/10/17 08:29:17;;;;;;;5.10;5.00;;;;;;;-142.65;80.52;50162.81;5117605;28;20212;-68
2022/10/17 08:31:43;;;;;;;6.27;5.07;;;;;;;-142.65;81.21;50164.81;5116962;28;20205;-67
2022/10/17 08:34:14;;;;;;;5.50;4.93;;;;;;;-142.65;80.91;50162.81;5117059;28;20173;-67
2022/10/17 08:36:41;;;;;;;6.50;5.70;;;;;;;-142.65;80.52;50162.81;5116924;28;20194;-67
2022/10/17 08:39:07;;;;;;;5.13;4.90;;;;;;;;;;5117135;28;20185;-67
2022/10/17 08:41:38;;;;;;;5.17;4.70;;;;;;;-142.65;79.65;50162.81;5116889;28;20702;-68
2022/10/17 08:44:28;;;;;;;8.53;5.43;;;;;;;-142.65;79.26;50162.81;5116703;28;20193;-67
2022/10/17 08:47:00;;;;;;;4.97;4.67;;;;;;;-142.65;78.81;50101.06;5117337;28;20184;-67
2022/10/17 08:49:45;;;;;;;4.80;4.60;;;;;;;-142.65;78.74;50164.81;5116976;28;20178;-67
2022/10/17 08:52:26;;;;;;;5.43;4.97;;;;;;;-142.65;78.15;50160.81;5116705;28;20185;-68
2022/10/17 08:54:52;;;;;;;8.83;4.80;;;;;;;-142.65;77.11;50162.81;5117202;28;20169;-68
2022/10/17 08:57:19;;;;;;;7.10;4.63;;;;;;;-142.65;77.43;50164.81;5116553;28;20181;-68
2022/10/17 08:59:49;;;;;;;5.27;4.70;;;;;;;;;;5116467;28;20661;-68
2022/10/17 09:02:53;;;;;;;4.87;4.27;;;;;;;-142.65;77.35;50170.78;5116762;28;20170;-68
2022/10/17 09:05:25;;;;;;;4.40;4.20;;;;;;;-142.65;76.88;50164.81;5116729;28;20204;-68
2022/10/17 09:08:03;;;;;;;5.00;4.57;;;;;;;-142.65;76.94;50164.81;5115607;28;20522;-68
2022/10/17 09:10:45;;;;;;;8.73;4.40;;;;;;;-142.65;77.62;50162.81;5116467;28;20568;-68
2022/10/17 09:13:23;;;;;;;15.07;4.90;;;;;;;-142.65;76.61;50162.81;5116431;28;20169;-68
2022/10/17 09:16:08;;;;;;;7.27;5.10;;;;;;;;;;5116808;28;20181;-68
2022/10/17 09:18:41;;;;;;;8.30;4.33;;;;;;;-142.65;77.34;50162.81;5116169;28;20203;-67
2022/10/17 09:21:43;;;;;;;4.57;4.47;;;;;;;-142.65;75.89;50164.81;5116287;28;20251;-68
2022/10/17 09:24:15;;;;;;;9.43;4.70;;;;;;;-142.65;76.17;50164.81;5111754;28;20230;-68
2022/10/17 09:26:43;;;;;;;4.80;4.70;;;;;;;;;;5116629;28;20178;-68
2022/10/17 09:29:21;;;;;;;4.10;3.90;;;;;;;;;;5115909;28;20193;-68
2022/10/17 09:31:53;;;;;;;4.90;4.33;;;;;;;-142.65;76.23;50162.81;5115871;28;20205;-68
2022/10/17 09:34:21;;;;;;;4.67;4.50;;;;;;;-142.65;76.80;50164.81;5116446;28;20174;-68
2022/10/17 09:36:52;;;;;;;5.03;4.93;;;;;;;-142.65;76.73;50162.81;5116335;28;20188;-68
2022/10/17 09:39:23;;;;;;;4.57;4.27;;;;;;;-142.65;75.74;50162.81;5115742;28;20196;-68
2022/10/17 09:41:52;;;;;;;15.57;4.80;;;;;;;-142.65;76.56;50162.81;5115689;28;20219;-68
2022/10/17 09:44:23;;;;;;;9.43;4.83;;;;;;;-142.65;75.71;50164.81;5115850;28;20205;-68
2022/10/17 09:47:14;;;;;;;4.77;4.40;;;;;;;-142.65;76.33;50164.81;5115917;28;20181;-68
2022/10/17 09:49:43;;;;;;;5.13;4.87;;;;;;;-142.65;75.56;50164.81;5115742;28;20178;-69
2022/10/17 09:52:20;;;;;;;4.80;4.50;;;;;;;-142.65;76.39;50164.81;5115763;28;20194;-68
2022/10/17 09:54:48;;;;;;;5.50;4.87;;;;;;;;;;5115766;28;20170;-68
2022/10/17 09:57:15;;;;;;;5.07;4.67;;;;;;;;;;5115622;28;20707;-68
2022/10/17 09:59:56;;;;;;;4.83;4.73;;;;;;;-142.65;76.23;50162.81;5115345;28;20524;-68
2022/10/17 10:02:24;;;;;;;5.37;4.83;;;;;;;-142.65;75.81;50162.81;5115881;28;20264;-68
2022/10/17 10:04:52;;;;;;;11.40;5.10;;;;;;;-142.65;76.17;50162.81;5115216;28;20205;-68
2022/10/17 10:07:37;;;;;;;4.57;4.17;;;;;;;;;;5115283;28;20260;-68
2022/10/17 10:10:05;;;;;;;4.23;4.23;;;;;;;;;;5115394;28;20292;-68
2022/10/17 10:12:35;;;;;;;6.27;4.67;;;;;;;-142.65;76.21;50164.81;5115104;28;20181;-68
2022/10/17 10:15:21;;;;;;;4.37;4.17;;;;;;;;;;5114937;28;20197;-68
2022/10/17 10:17:47;;;;;;;5.10;4.90;;;;;;;-142.65;76.97;50162.81;5115167;28;20193;-68
2022/10/17 10:20:35;;;;;;;5.40;5.10;;;;;;;-142.65;76.25;50162.81;5114756;28;20220;-68
2022/10/17 10:23:16;;;;;;;11.47;5.60;;;;;;;-142.65;76.96;50164.81;5115205;28;20180;-68
2022/10/17 10:25:53;;;;;;;4.43;4.23;;;;;;;-142.65;77.10;50101.06;5115375;28;20173;-68
2022/10/17 10:28:22;;;;;;;8.53;4.20;;;;;;;;;;5115311;28;20201;-68
2022/10/17 10:30:51;;;;;;;4.43;4.33;;;;;;;-142.65;77.40;50164.81;5114773;28;20258;-68
2022/10/17 10:33:20;;;;;;;5.53;4.60;;;;;;;-142.65;77.07;50160.81;5114627;28;20200;-68
2022/10/17 10:36:00;;;;;;;4.40;4.30;;;;;;;-142.65;77.46;50168.78;5114543;28;20647;-68
2022/10/17 10:38:28;;;;;;;4.10;4.00;;;;;;;-142.65;77.56;50162.81;5115194;28;20211;-68
2022/10/17 10:40:56;;;;;;;8.93;8.20;;;;;;;;;;5114664;28;20216;-68
2022/10/17 10:43:30;;;;;;;5.13;4.93;;;;;;;-142.65;76.91;50162.81;5114874;28;20189;-68
2022/10/17 10:45:57;;;;;;;10.97;4.50;;;;;;;;;;5114759;28;20172;-68
2022/10/17 10:48:31;;;;;;;4.60;4.40;;;;;;;-142.65;77.27;50162.81;5114372;28;20196;-68
2022/10/17 10:51:11;;;;;;;4.77;4.37;;;;;;;-142.65;77.58;50164.81;5114628;28;20548;-68
2022/10/17 10:53:44;;;;;;;4.40;4.03;;;;;;;-142.65;77.98;50160.81;5114608;28;20184;-68
2022/10/17 10:56:21;;;;;;;4.90;4.70;;;;;;;-142.65;77.53;50168.78;5114814;28;20511;-68
2022/10/17 10:59:19;;;;;;;7.03;4.60;;;;;;;-142.65;78.10;50164.81;5114257;28;20177;-68
2022/10/17 11:02:13;;;;;;;4.70;4.27;;;;;;;-142.65;78.23;50160.81;5114336;28;20201;-68
2022/10/17 11:04:43;;;;;;;4.63;4.57;;;;;;;-142.65;77.76;50101.06;5114363;28;20203;-68
2022/10/17 11:07:18;;;;;;;10.07;4.40;;;;;;;-142.65;78.80;50164.81;5114124;28;20189;-68
2022/10/17 11:09:52;;;;;;;8.33;4.23;;;;;;;-142.65;78.06;50162.81;5114301;28;20177;-69
2022/10/17 11:12:27;;;;;;;11.83;4.57;;;;;;;-142.65;78.28;50162.81;5114328;28;20184;-68
2022/10/17 11:15:06;;;;;;;4.50;4.30;;;;;;;-142.65;78.23;50162.81;5113965;28;20685;-68
2022/10/17 11:17:38;;;;;;;5.50;4.50;;;;;;;;;;5114179;28;20177;-68
2022/10/17 11:20:08;;;;;;;4.73;4.30;;;;;;;-142.65;77.50;50164.81;5113788;28;20631;-68
2022/10/17 11:22:45;;;;;;;4.67;4.30;;;;;;;-142.65;77.68;50162.81;5114373;28;20258;-68
2022/10/17 11:25:32;;;;;;;4.77;3.80;;;;;;;-142.65;77.67;50160.81;5114311;28;20193;-68
2022/10/17 11:28:00;;;;;;;4.67;4.37;;;;;;;-142.65;77.83;50170.78;5114041;28;20188;-68
2022/10/17 11:30:38;;;;;;;4.53;4.50;;;;;;;;;;5113066;28;20209;-68
2022/10/17 11:33:06;;;;;;;4.30;4.17;;;;;;;-142.65;78.42;50162.81;5113702;28;20168;-68
2022/10/17 11:35:35;;;;;;;4.73;4.43;;;;;;;;;;5113655;28;20262;-68
2022/10/17 11:38:17;;;;;;;4.80;4.50;;;;;;;-142.65;78.36;50164.81;5113930;28;20173;-68
2022/10/17 11:40:48;;;;;;;12.53;4.77;;;;;;;-142.65;79.21;50164.81;5113930;28;20669;-68
2022/10/17 11:43:29;;;;;;;9.67;4.67;;;;;;;-142.65;79.00;50168.78;5113922;28;20177;-68
2022/10/17 11:46:00;;;;;;;5.50;4.80;;;;;;;;;;5114233;28;20184;-68
2022/10/17 11:48:48;;;;;;;4.43;4.30;;;;;;;-142.65;79.26;50160.81;5113931;28;20178;-68
2022/10/17 11:51:15;;;;;;;5.63;4.60;;;;;;;-142.65;79.97;50162.81;5113731;28;20216;-68
2022/10/17 11:54:10;;;;;;;4.60;4.30;;;;;;;-142.65;80.11;50162.81;5113404;28;20539;-68
2022/10/17 11:56:50;;;;;;;4.93;4.83;;;;;;;-142.65;79.93;50162.81;5113860;28;20181;-68
2022/10/17 11:59:35;;;;;;;7.63;4.60;;;;;;;-142.65;80.92;50162.81;5113814;28;20170;-68
2022/10/17 12:02:08;;;;;;;11.20;4.77;;;;;;;-142.65;80.36;50164.81;5095149;28;20227;-68
2022/10/17 12:05:08;;;;;;;4.87;4.57;;;;;;;-142.65;80.34;50162.81;5113383;28;20674;-68
2022/10/17 12:07:46;;;;;;;3.97;3.87;;;;;;;-142.65;79.96;50101.06;5113741;28;20181;-68
2022/10/17 12:10:13;;;;;;;4.60;4.40;;;;;;;;;;5113667;28;20209;-68
2022/10/17 12:12:39;;;;;;;6.50;6.30;;;;;;;-142.65;79.93;50162.81;5113333;28;20192;-68
2022/10/17 12:15:12;;;;;;;5.77;5.23;;;;;;;-142.65;79.66;50170.78;5113452;28;20194;-68
2022/10/17 12:17:54;;;;;;;5.50;5.00;;;;;;;-142.65;79.43;50162.81;5113324;28;20196;-68
2022/10/17 12:20:22;;;;;;;5.23;5.03;;;;;;;-142.65;79.71;50162.81;5113534;28;20576;-68